createdAt,value
2019-05-13T00:00:34.184Z,22.35
2019-05-13T00:01:34.463Z,22.36
2019-05-13T00:02:34.512Z,22.36
2019-05-13T00:03:33.519Z,22.36
2019-05-13T00:04:33.738Z,22.37
2019-05-13T00:05:33.942Z,22.33
2019-05-13T00:06:34.286Z,22.33
2019-05-13T00:07:34.305Z,22.36
2019-05-13T00:08:33.869Z,22.35
2019-05-13T00:09:34.199Z,22.36
2019-05-13T00:10:34.989Z,22.36
2019-05-13T00:11:34.623Z,22.28
2019-05-13T00:12:35.404Z,22.39
2019-05-13T00:13:33.805Z,22.36
2019-05-13T00:14:34.429Z,22.40
2019-05-13T00:15:34.374Z,22.28
2019-05-13T00:16:34.174Z,22.27
2019-05-13T00:17:33.771Z,22.33
2019-05-13T00:18:33.962Z,22.33
2019-05-13T00:19:33.904Z,22.40
2019-05-13T00:20:33.862Z,22.36
2019-05-13T00:21:33.919Z,22.33
2019-05-13T00:22:33.955Z,22.31
2019-05-13T00:23:34.033Z,22.39
2019-05-13T00:24:33.951Z,22.37
2019-05-13T00:25:34.165Z,22.36
2019-05-13T00:26:33.748Z,22.37
2019-05-13T00:27:33.843Z,22.35
2019-05-13T00:28:34.283Z,22.31
2019-05-13T00:29:34.106Z,22.36
2019-05-13T00:30:34.209Z,22.33
2019-05-13T00:31:33.586Z,22.28
2019-05-13T00:32:33.707Z,22.33
2019-05-13T00:33:33.850Z,22.36
2019-05-13T00:34:33.859Z,22.31
2019-05-13T00:35:33.949Z,22.39
2019-05-13T00:36:33.782Z,22.36
2019-05-13T00:37:33.423Z,22.35
2019-05-13T00:38:33.523Z,22.27
2019-05-13T00:39:33.647Z,22.35
2019-05-13T00:40:33.777Z,22.30
2019-05-13T00:41:33.666Z,22.31
2019-05-13T00:42:33.453Z,22.27
2019-05-13T00:43:33.844Z,22.30
2019-05-13T00:44:33.777Z,22.33
2019-05-13T00:45:34.037Z,22.33
2019-05-13T00:46:34.009Z,22.27
2019-05-13T00:47:34.184Z,22.24
2019-05-13T00:48:33.500Z,22.31
2019-05-13T00:49:34.572Z,22.30
2019-05-13T00:50:33.494Z,22.30
2019-05-13T00:51:33.802Z,22.28
2019-05-13T00:52:33.895Z,22.31
2019-05-13T00:53:32.546Z,22.27
2019-05-13T00:54:34.165Z,22.30
2019-05-13T00:55:34.452Z,22.30
2019-05-13T00:56:34.486Z,22.24
2019-05-13T00:57:34.161Z,22.27
2019-05-13T00:58:33.475Z,22.36
2019-05-13T00:59:34.070Z,22.27
2019-05-13T01:00:33.835Z,22.28
2019-05-13T01:01:33.510Z,22.22
2019-05-13T01:02:33.810Z,22.27
2019-05-13T01:03:33.790Z,22.31
2019-05-13T01:04:33.964Z,22.30
2019-05-13T01:05:33.928Z,22.25
2019-05-13T01:06:34.106Z,22.30
2019-05-13T01:07:34.128Z,22.27
2019-05-13T01:08:33.845Z,22.30
2019-05-13T01:09:34.296Z,22.25
2019-05-13T01:10:34.586Z,22.28
2019-05-13T01:11:34.357Z,22.25
2019-05-13T01:12:34.499Z,22.25
2019-05-13T01:13:34.246Z,22.30
2019-05-13T01:14:34.213Z,22.25
2019-05-13T01:15:34.261Z,22.24
2019-05-13T01:16:34.101Z,22.28
2019-05-13T01:17:34.059Z,22.24
2019-05-13T01:18:34.072Z,22.22
2019-05-13T01:19:34.215Z,22.30
2019-05-13T01:20:34.386Z,22.20
2019-05-13T01:21:34.340Z,22.22
2019-05-13T01:22:34.407Z,22.28
2019-05-13T01:23:34.201Z,22.22
2019-05-13T01:24:33.641Z,22.20
2019-05-13T01:25:33.624Z,22.20
2019-05-13T01:26:33.733Z,22.22
2019-05-13T01:27:33.394Z,22.25
2019-05-13T01:28:34.364Z,22.22
2019-05-13T01:29:34.132Z,22.21
2019-05-13T01:30:34.534Z,22.28
2019-05-13T01:31:34.219Z,22.15
2019-05-13T01:32:34.184Z,22.22
2019-05-13T01:33:32.127Z,22.25
2019-05-13T01:34:33.921Z,22.22
2019-05-13T01:35:34.360Z,22.24
2019-05-13T01:36:34.108Z,22.24
2019-05-13T01:37:39.969Z,22.17
2019-05-13T01:38:33.968Z,22.20
2019-05-13T01:39:34.879Z,22.22
2019-05-13T01:40:34.444Z,22.24
2019-05-13T01:41:33.507Z,22.18
2019-05-13T01:42:33.681Z,22.21
2019-05-13T01:43:33.551Z,22.15
2019-05-13T01:44:33.631Z,22.28
2019-05-13T01:45:33.806Z,22.17
2019-05-13T01:46:34.517Z,22.20
2019-05-13T01:47:34.403Z,22.30
2019-05-13T01:48:33.299Z,22.17
2019-05-13T01:49:33.671Z,22.27
2019-05-13T01:50:33.824Z,22.17
2019-05-13T01:51:33.424Z,22.14
2019-05-13T01:52:33.931Z,22.27
2019-05-13T01:53:33.649Z,22.20
2019-05-13T01:54:33.928Z,22.18
2019-05-13T01:55:33.979Z,22.22
2019-05-13T01:56:33.903Z,22.24
2019-05-13T01:57:34.122Z,22.21
2019-05-13T01:58:33.981Z,22.20
2019-05-13T01:59:33.981Z,22.15
2019-05-13T02:00:35.251Z,22.27
2019-05-13T02:01:33.696Z,22.24
2019-05-13T02:02:33.724Z,22.27
2019-05-13T02:03:33.786Z,22.25
2019-05-13T02:04:33.552Z,22.15
2019-05-13T02:05:33.898Z,22.22
2019-05-13T02:06:33.611Z,22.22
2019-05-13T02:07:33.538Z,22.18
2019-05-13T02:08:33.716Z,22.21
2019-05-13T02:09:33.678Z,22.24
2019-05-13T02:10:33.759Z,22.18
2019-05-13T02:11:33.980Z,22.15
2019-05-13T02:12:33.890Z,22.15
2019-05-13T02:13:34.360Z,22.24
2019-05-13T02:14:34.117Z,22.24
2019-05-13T02:15:33.781Z,22.20
2019-05-13T02:16:33.776Z,22.27
2019-05-13T02:17:33.638Z,22.21
2019-05-13T02:18:33.921Z,22.15
2019-05-13T02:19:33.609Z,22.24
2019-05-13T02:20:33.551Z,22.18
2019-05-13T02:21:33.653Z,22.20
2019-05-13T02:22:33.665Z,22.22
2019-05-13T02:23:34.001Z,22.15
2019-05-13T02:24:34.090Z,22.30
2019-05-13T02:25:33.930Z,22.15
2019-05-13T02:26:34.553Z,22.27
2019-05-13T02:27:34.384Z,22.21
2019-05-13T02:28:33.436Z,22.22
2019-05-13T02:29:31.530Z,22.24
2019-05-13T02:30:34.652Z,22.21
2019-05-13T02:31:45.419Z,22.18
2019-05-13T02:32:32.868Z,22.20
2019-05-13T02:33:33.864Z,22.22
2019-05-13T02:34:32.362Z,22.24
2019-05-13T02:35:32.507Z,22.18
2019-05-13T02:36:32.952Z,22.21
2019-05-13T02:37:34.272Z,22.22
2019-05-13T02:38:35.172Z,22.20
2019-05-13T02:39:32.810Z,22.22
2019-05-13T02:40:32.723Z,22.18
2019-05-13T02:41:34.112Z,22.22
2019-05-13T02:42:32.706Z,22.21
2019-05-13T02:43:33.270Z,22.21
2019-05-13T02:44:33.273Z,22.17
2019-05-13T02:45:33.330Z,22.22
2019-05-13T02:46:33.873Z,22.22
2019-05-13T02:47:33.103Z,22.20
2019-05-13T02:48:33.211Z,22.24
2019-05-13T02:49:32.691Z,22.24
2019-05-13T02:50:33.740Z,22.24
2019-05-13T02:51:32.863Z,22.17
2019-05-13T02:52:33.411Z,22.20
2019-05-13T02:53:33.489Z,22.20
2019-05-13T02:54:34.285Z,22.12
2019-05-13T02:55:32.847Z,22.22
2019-05-13T02:56:33.019Z,22.20
2019-05-13T02:57:32.743Z,22.18
2019-05-13T02:58:33.437Z,22.24
2019-05-13T02:59:33.588Z,22.25
2019-05-13T03:00:32.869Z,22.28
2019-05-13T03:01:33.199Z,22.24
2019-05-13T03:02:32.801Z,22.24
2019-05-13T03:03:32.730Z,22.18
2019-05-13T03:04:32.568Z,22.21
2019-05-13T03:05:32.062Z,22.21
2019-05-13T03:06:33.187Z,22.20
2019-05-13T03:07:33.351Z,22.20
2019-05-13T03:08:44.755Z,22.21
2019-05-13T03:09:32.477Z,22.14
2019-05-13T03:10:33.093Z,22.20
2019-05-13T03:11:33.160Z,22.25
2019-05-13T03:12:32.209Z,22.15
2019-05-13T03:13:32.803Z,22.21
2019-05-13T03:14:32.433Z,22.17
2019-05-13T03:15:32.657Z,22.20
2019-05-13T03:16:32.600Z,22.18
2019-05-13T03:17:32.627Z,22.20
2019-05-13T03:18:33.520Z,22.21
2019-05-13T03:19:33.212Z,22.20
2019-05-13T03:20:33.359Z,22.20
2019-05-13T03:21:32.637Z,22.14
2019-05-13T03:22:32.569Z,22.21
2019-05-13T03:23:32.688Z,22.18
2019-05-13T03:24:33.019Z,22.20
2019-05-13T03:25:33.149Z,22.20
2019-05-13T03:26:32.151Z,22.17
2019-05-13T03:27:33.754Z,22.20
2019-05-13T03:28:33.608Z,22.17
2019-05-13T03:29:32.996Z,22.21
2019-05-13T03:30:35.443Z,22.20
2019-05-13T03:31:36.058Z,22.18
2019-05-13T03:32:37.703Z,22.21
2019-05-13T03:33:36.729Z,22.20
2019-05-13T03:34:35.951Z,22.17
2019-05-13T03:35:36.328Z,22.21
2019-05-13T03:36:35.995Z,22.21
2019-05-13T03:37:34.734Z,22.15
2019-05-13T03:38:32.900Z,22.18
2019-05-13T03:39:33.142Z,22.17
2019-05-13T03:40:32.921Z,22.18
2019-05-13T03:41:32.962Z,22.14
2019-05-13T03:42:33.491Z,22.20
2019-05-13T03:43:32.533Z,22.14
2019-05-13T03:44:32.579Z,22.15
2019-05-13T03:45:32.742Z,22.15
2019-05-13T03:46:33.341Z,22.18
2019-05-13T03:47:32.850Z,22.25
2019-05-13T03:48:33.384Z,22.14
2019-05-13T03:49:32.688Z,22.18
2019-05-13T03:50:34.423Z,22.15
2019-05-13T03:51:32.600Z,22.17
2019-05-13T03:52:33.637Z,22.20
2019-05-13T03:53:32.546Z,22.15
2019-05-13T03:54:32.789Z,22.22
2019-05-13T03:55:32.812Z,22.15
2019-05-13T03:56:32.868Z,22.17
2019-05-13T03:57:33.764Z,22.18
2019-05-13T03:58:32.430Z,22.15
2019-05-13T03:59:33.244Z,22.18
2019-05-13T04:00:32.272Z,22.17
2019-05-13T04:01:32.528Z,22.22
2019-05-13T04:02:32.574Z,22.12
2019-05-13T04:03:33.122Z,22.17
2019-05-13T04:04:32.385Z,22.20
2019-05-13T04:05:33.479Z,22.14
2019-05-13T04:06:32.364Z,22.18
2019-05-13T04:07:32.612Z,22.15
2019-05-13T04:08:32.654Z,22.12
2019-05-13T04:09:34.948Z,22.21
2019-05-13T04:10:33.106Z,22.20
2019-05-13T04:11:33.068Z,22.17
2019-05-13T04:12:33.352Z,22.14
2019-05-13T04:13:33.608Z,22.20
2019-05-13T04:14:33.359Z,22.18
2019-05-13T04:15:31.987Z,22.15
2019-05-13T04:16:32.305Z,22.17
2019-05-13T04:17:32.037Z,22.20
2019-05-13T04:18:31.995Z,22.12
2019-05-13T04:19:33.399Z,22.14
2019-05-13T04:20:33.015Z,22.20
2019-05-13T04:21:33.535Z,22.20
2019-05-13T04:22:33.148Z,22.12
2019-05-13T04:23:32.311Z,22.22
2019-05-13T04:24:33.325Z,22.17
2019-05-13T04:25:32.262Z,22.15
2019-05-13T04:26:32.291Z,22.18
2019-05-13T04:27:32.713Z,22.17
2019-05-13T04:28:32.993Z,22.14
2019-05-13T04:29:33.104Z,22.18
2019-05-13T04:30:32.998Z,22.15
2019-05-13T04:31:33.342Z,22.17
2019-05-13T04:32:33.629Z,22.18
2019-05-13T04:33:33.099Z,22.17
2019-05-13T04:34:33.305Z,22.14
2019-05-13T04:35:32.422Z,22.12
2019-05-13T04:36:31.951Z,22.14
2019-05-13T04:37:32.957Z,22.18
2019-05-13T04:38:33.050Z,22.18
2019-05-13T04:39:44.451Z,22.20
2019-05-13T04:40:32.994Z,22.20
2019-05-13T04:41:32.978Z,22.15
2019-05-13T04:42:33.102Z,22.22
2019-05-13T04:43:34.305Z,22.17
2019-05-13T04:44:32.306Z,22.25
2019-05-13T04:45:32.976Z,22.12
2019-05-13T04:46:32.777Z,22.17
2019-05-13T04:47:33.233Z,22.21
2019-05-13T04:48:33.605Z,22.17
2019-05-13T04:49:32.623Z,22.17
2019-05-13T04:50:32.950Z,22.14
2019-05-13T04:51:32.892Z,22.15
2019-05-13T04:52:32.715Z,22.15
2019-05-13T04:53:33.328Z,22.10
2019-05-13T04:54:33.077Z,22.17
2019-05-13T04:55:32.456Z,22.14
2019-05-13T04:56:32.944Z,22.18
2019-05-13T04:57:32.973Z,22.10
2019-05-13T04:58:32.267Z,22.14
2019-05-13T04:59:33.542Z,22.15
2019-05-13T05:00:32.302Z,22.12
2019-05-13T05:01:32.443Z,22.15
2019-05-13T05:02:40.038Z,22.25
2019-05-13T05:03:38.798Z,22.15
2019-05-13T05:04:33.990Z,22.14
2019-05-13T05:05:32.574Z,22.14
2019-05-13T05:06:32.860Z,22.17
2019-05-13T05:07:32.690Z,22.10
2019-05-13T05:08:32.634Z,22.15
2019-05-13T05:09:32.844Z,22.18
2019-05-13T05:10:38.456Z,22.22
2019-05-13T05:11:32.206Z,22.14
2019-05-13T05:12:32.042Z,22.12
2019-05-13T05:13:32.178Z,22.14
2019-05-13T05:14:32.488Z,22.14
2019-05-13T05:15:32.258Z,22.17
2019-05-13T05:16:32.403Z,22.14
2019-05-13T05:17:32.602Z,22.15
2019-05-13T05:18:32.471Z,22.12
2019-05-13T05:19:32.066Z,22.09
2019-05-13T05:20:32.185Z,22.14
2019-05-13T05:21:29.655Z,22.07
2019-05-13T05:22:31.440Z,22.12
2019-05-13T05:23:31.792Z,22.17
2019-05-13T05:24:32.359Z,22.22
2019-05-13T05:25:29.607Z,22.20
2019-05-13T05:26:31.289Z,22.18
2019-05-13T05:27:31.668Z,22.14
2019-05-13T05:28:31.947Z,22.10
2019-05-13T05:29:31.951Z,22.20
2019-05-13T05:30:29.565Z,22.15
2019-05-13T05:31:29.558Z,22.15
2019-05-13T05:32:31.845Z,22.12
2019-05-13T05:33:31.685Z,22.12
2019-05-13T05:34:29.517Z,22.14
2019-05-13T05:35:29.513Z,22.15
2019-05-13T05:36:29.499Z,22.20
2019-05-13T05:37:31.292Z,22.17
2019-05-13T05:38:31.733Z,22.21
2019-05-13T05:39:31.514Z,22.14
2019-05-13T05:40:34.070Z,22.15
2019-05-13T05:41:31.599Z,22.17
2019-05-13T05:42:29.457Z,22.18
2019-05-13T05:43:31.488Z,22.22
2019-05-13T05:44:32.127Z,22.21
2019-05-13T05:45:31.823Z,22.21
2019-05-13T05:46:32.217Z,22.14
2019-05-13T05:47:31.645Z,22.18
2019-05-13T05:48:31.462Z,22.20
2019-05-13T05:49:31.815Z,22.22
2019-05-13T05:50:31.810Z,22.21
2019-05-13T05:51:31.502Z,22.21
2019-05-13T05:52:31.585Z,22.20
2019-05-13T05:53:31.917Z,22.17
2019-05-13T05:54:31.673Z,22.20
2019-05-13T05:55:31.669Z,22.14
2019-05-13T05:56:32.336Z,22.17
2019-05-13T05:57:31.433Z,22.12
2019-05-13T05:58:31.568Z,22.14
2019-05-13T05:59:31.835Z,22.14
2019-05-13T06:00:29.287Z,22.09
2019-05-13T06:01:29.251Z,22.12
2019-05-13T06:02:32.198Z,22.10
2019-05-13T06:03:29.203Z,22.12
2019-05-13T06:04:32.270Z,22.09
2019-05-13T06:05:29.184Z,22.14
2019-05-13T06:06:29.172Z,22.20
2019-05-13T06:07:29.164Z,22.06
2019-05-13T06:08:29.152Z,22.17
2019-05-13T06:09:32.076Z,22.14
2019-05-13T06:10:44.151Z,22.14
2019-05-13T06:11:31.116Z,22.07
2019-05-13T06:12:31.492Z,22.18
2019-05-13T06:13:31.486Z,22.18
2019-05-13T06:14:29.495Z,22.17
2019-05-13T06:15:31.337Z,22.18
2019-05-13T06:16:29.091Z,22.20
2019-05-13T06:17:31.955Z,22.18
2019-05-13T06:18:29.045Z,22.15
2019-05-13T06:19:31.705Z,22.18
2019-05-13T06:20:31.683Z,22.18
2019-05-13T06:21:29.016Z,22.15
2019-05-13T06:22:28.999Z,22.20
2019-05-13T06:23:31.256Z,22.27
2019-05-13T06:24:31.094Z,22.25
2019-05-13T06:25:33.323Z,22.18
2019-05-13T06:26:31.336Z,22.22
2019-05-13T06:27:28.960Z,22.18
2019-05-13T06:28:28.935Z,22.20
2019-05-13T06:29:31.397Z,22.24
2019-05-13T06:30:28.911Z,22.25
2019-05-13T06:31:28.911Z,22.21
2019-05-13T06:32:31.396Z,22.20
2019-05-13T06:33:28.881Z,22.24
2019-05-13T06:34:29.012Z,22.24
2019-05-13T06:35:28.859Z,22.17
2019-05-13T06:36:31.453Z,22.30
2019-05-13T06:37:28.869Z,22.24
2019-05-13T06:38:31.628Z,22.25
2019-05-13T06:39:28.828Z,22.27
2019-05-13T06:40:28.808Z,22.24
2019-05-13T06:41:29.480Z,22.24
2019-05-13T06:42:29.480Z,22.21
2019-05-13T06:43:31.308Z,22.21
2019-05-13T06:44:31.374Z,22.25
2019-05-13T06:45:31.602Z,22.24
2019-05-13T06:46:28.765Z,22.21
2019-05-13T06:47:28.751Z,22.25
2019-05-13T06:48:28.748Z,22.25
2019-05-13T06:49:28.717Z,22.27
2019-05-13T06:50:28.702Z,22.24
2019-05-13T06:51:28.685Z,22.28
2019-05-13T06:52:31.773Z,22.28
2019-05-13T06:53:28.663Z,22.28
2019-05-13T06:54:29.501Z,22.31
2019-05-13T06:55:28.650Z,22.31
2019-05-13T06:56:28.631Z,22.31
2019-05-13T06:57:28.618Z,22.28
2019-05-13T06:58:29.483Z,22.36
2019-05-13T06:59:28.633Z,22.33
2019-05-13T07:00:28.604Z,22.36
2019-05-13T07:01:28.576Z,22.30
2019-05-13T07:02:31.848Z,22.31
2019-05-13T07:03:28.557Z,22.36
2019-05-13T07:04:28.546Z,22.37
2019-05-13T07:05:28.542Z,22.36
2019-05-13T07:06:28.526Z,22.35
2019-05-13T07:07:28.511Z,22.30
2019-05-13T07:08:28.501Z,22.37
2019-05-13T07:09:28.493Z,22.33
2019-05-13T07:10:28.490Z,22.35
2019-05-13T07:11:28.529Z,22.36
2019-05-13T07:12:28.476Z,22.25
2019-05-13T07:13:28.448Z,22.33
2019-05-13T07:14:28.436Z,22.33
2019-05-13T07:15:28.459Z,22.40
2019-05-13T07:16:28.433Z,22.37
2019-05-13T07:17:28.405Z,22.37
2019-05-13T07:18:28.395Z,22.40
2019-05-13T07:19:28.985Z,22.43
2019-05-13T07:20:28.382Z,22.40
2019-05-13T07:21:28.362Z,22.37
2019-05-13T07:22:28.354Z,22.45
2019-05-13T07:23:28.376Z,22.47
2019-05-13T07:24:28.331Z,22.42
2019-05-13T07:25:28.517Z,22.45
2019-05-13T07:26:31.290Z,22.43
2019-05-13T07:27:28.325Z,22.45
2019-05-13T07:28:28.296Z,22.49
2019-05-13T07:29:28.284Z,22.42
2019-05-13T07:30:28.286Z,22.51
2019-05-13T07:31:28.990Z,22.49
2019-05-13T07:32:28.250Z,22.46
2019-05-13T07:33:28.332Z,22.45
2019-05-13T07:34:28.232Z,22.46
2019-05-13T07:35:30.846Z,22.57
2019-05-13T07:36:27.983Z,22.46
2019-05-13T07:37:28.196Z,22.49
2019-05-13T07:38:28.182Z,22.47
2019-05-13T07:39:28.173Z,22.46
2019-05-13T07:40:28.211Z,22.47
2019-05-13T07:41:36.429Z,22.40
2019-05-13T07:42:28.145Z,22.43
2019-05-13T07:43:28.125Z,22.47
2019-05-13T07:44:28.115Z,22.42
2019-05-13T07:45:28.510Z,22.47
2019-05-13T07:46:28.112Z,22.45
2019-05-13T07:47:31.246Z,22.47
2019-05-13T07:48:31.634Z,22.47
2019-05-13T07:49:28.073Z,22.45
2019-05-13T07:50:28.082Z,22.47
2019-05-13T07:51:28.045Z,22.43
2019-05-13T07:52:28.034Z,22.49
2019-05-13T07:53:28.032Z,22.46
2019-05-13T07:54:28.013Z,22.39
2019-05-13T07:55:28.013Z,22.49
2019-05-13T07:56:28.009Z,22.49
2019-05-13T07:57:28.494Z,22.54
2019-05-13T07:58:27.993Z,22.45
2019-05-13T07:59:27.963Z,22.57
2019-05-13T08:00:27.951Z,22.52
2019-05-13T08:01:27.952Z,22.47
2019-05-13T08:02:27.925Z,22.57
2019-05-13T08:03:28.484Z,22.57
2019-05-13T08:04:28.484Z,22.54
2019-05-13T08:05:27.895Z,22.51
2019-05-13T08:06:27.892Z,22.47
2019-05-13T08:07:27.874Z,22.52
2019-05-13T08:08:28.485Z,22.58
2019-05-13T08:09:28.485Z,22.61
2019-05-13T08:10:28.485Z,22.64
2019-05-13T08:11:27.853Z,22.58
2019-05-13T08:12:27.820Z,22.58
2019-05-13T08:13:27.808Z,22.65
2019-05-13T08:14:27.803Z,22.62
2019-05-13T08:15:27.788Z,22.65
2019-05-13T08:16:27.785Z,22.61
2019-05-13T08:17:27.781Z,22.62
2019-05-13T08:18:27.756Z,22.62
2019-05-13T08:19:27.758Z,22.70
2019-05-13T08:20:27.737Z,22.70
2019-05-13T08:21:28.001Z,22.76
2019-05-13T08:22:27.714Z,22.70
2019-05-13T08:23:27.700Z,22.70
2019-05-13T08:24:27.690Z,22.70
2019-05-13T08:25:27.683Z,22.72
2019-05-13T08:26:27.689Z,22.75
2019-05-13T08:27:34.977Z,22.76
2019-05-13T08:28:27.649Z,22.73
2019-05-13T08:29:28.497Z,22.77
2019-05-13T08:30:27.634Z,22.83
2019-05-13T08:31:27.621Z,22.82
2019-05-13T08:32:27.638Z,22.86
2019-05-13T08:33:27.595Z,22.80
2019-05-13T08:34:28.639Z,22.88
2019-05-13T08:35:28.523Z,22.85
2019-05-13T08:36:28.488Z,22.88
2019-05-13T08:37:27.568Z,22.86
2019-05-13T08:38:27.542Z,22.91
2019-05-13T08:39:33.441Z,22.85
2019-05-13T08:40:27.540Z,22.86
2019-05-13T08:41:27.508Z,22.92
2019-05-13T08:42:28.006Z,22.95
2019-05-13T08:43:27.485Z,22.94
2019-05-13T08:44:27.480Z,22.92
2019-05-13T08:45:27.468Z,22.97
2019-05-13T08:46:27.464Z,23.01
2019-05-13T08:47:27.450Z,23.00
2019-05-13T08:48:27.988Z,22.98
2019-05-13T08:49:27.423Z,23.02
2019-05-13T08:50:27.415Z,22.95
2019-05-13T08:51:31.137Z,23.09
2019-05-13T08:52:27.417Z,23.00
2019-05-13T08:53:27.376Z,23.12
2019-05-13T08:54:27.364Z,23.04
2019-05-13T08:55:27.351Z,23.12
2019-05-13T08:56:27.355Z,23.09
2019-05-13T08:57:27.335Z,23.13
2019-05-13T08:58:27.319Z,23.07
2019-05-13T08:59:27.309Z,23.13
2019-05-13T09:00:27.323Z,23.00
2019-05-13T09:01:27.300Z,23.05
2019-05-13T09:02:27.285Z,23.13
2019-05-13T09:03:27.268Z,23.10
2019-05-13T09:04:28.007Z,23.13
2019-05-13T09:05:27.259Z,23.13
2019-05-13T09:06:27.279Z,23.15
2019-05-13T09:07:27.239Z,23.19
2019-05-13T09:08:27.215Z,23.15
2019-05-13T09:09:27.990Z,23.16
2019-05-13T09:10:27.189Z,23.19
2019-05-13T09:11:27.184Z,23.19
2019-05-13T09:12:32.061Z,23.20
2019-05-13T09:13:27.996Z,23.19
2019-05-13T09:14:27.991Z,23.19
2019-05-13T09:15:27.133Z,23.16
2019-05-13T09:16:27.138Z,23.15
2019-05-13T09:17:27.990Z,23.25
2019-05-13T09:18:27.499Z,23.17
2019-05-13T09:19:27.091Z,23.20
2019-05-13T09:20:27.078Z,23.25
2019-05-13T09:21:27.085Z,23.28
2019-05-13T09:22:27.991Z,23.22
2019-05-13T09:23:27.502Z,23.36
2019-05-13T09:24:36.006Z,23.31
2019-05-13T09:25:27.024Z,23.33
2019-05-13T09:26:27.027Z,23.33
2019-05-13T09:27:27.003Z,23.36
2019-05-13T09:28:27.508Z,23.33
2019-05-13T09:29:26.983Z,23.35
2019-05-13T09:30:27.479Z,23.35
2019-05-13T09:31:27.510Z,23.36
2019-05-13T09:32:26.963Z,23.40
2019-05-13T09:33:26.943Z,23.40
2019-05-13T09:34:26.931Z,23.46
2019-05-13T09:35:26.953Z,23.42
2019-05-13T09:36:26.932Z,23.35
2019-05-13T09:37:27.511Z,23.43
2019-05-13T09:38:27.004Z,23.39
2019-05-13T09:39:26.877Z,23.43
2019-05-13T09:40:26.856Z,23.43
2019-05-13T09:41:26.862Z,23.48
2019-05-13T09:42:26.854Z,23.40
2019-05-13T09:43:26.844Z,23.46
2019-05-13T09:44:26.825Z,23.47
2019-05-13T09:45:26.808Z,23.48
2019-05-13T09:46:26.809Z,23.48
2019-05-13T09:47:28.473Z,23.50
2019-05-13T09:48:26.794Z,23.50
2019-05-13T09:49:26.763Z,23.51
2019-05-13T09:50:31.691Z,23.53
2019-05-13T09:51:26.742Z,23.50
2019-05-13T09:52:26.736Z,23.54
2019-05-13T09:53:26.728Z,23.54
2019-05-13T09:54:26.705Z,23.57
2019-05-13T09:55:29.332Z,23.66
2019-05-13T09:56:26.696Z,23.63
2019-05-13T09:57:26.688Z,23.60
2019-05-13T09:58:29.774Z,23.60
2019-05-13T09:59:26.657Z,23.66
2019-05-13T10:00:26.639Z,23.60
2019-05-13T10:01:27.493Z,23.66
2019-05-13T10:02:26.618Z,23.69
2019-05-13T10:03:29.728Z,23.78
2019-05-13T10:04:26.602Z,23.75
2019-05-13T10:05:26.585Z,23.76
2019-05-13T10:06:27.493Z,23.79
2019-05-13T10:07:26.580Z,23.73
2019-05-13T10:08:27.500Z,23.73
2019-05-13T10:09:26.551Z,23.72
2019-05-13T10:10:27.497Z,23.73
2019-05-13T10:11:26.515Z,23.78
2019-05-13T10:12:26.507Z,23.83
2019-05-13T10:13:27.015Z,23.78
2019-05-13T10:14:26.513Z,23.78
2019-05-13T10:15:26.473Z,23.73
2019-05-13T10:16:27.015Z,23.73
2019-05-13T10:17:26.463Z,23.79
2019-05-13T10:18:27.028Z,23.70
2019-05-13T10:19:26.506Z,23.75
2019-05-13T10:20:26.997Z,23.76
2019-05-13T10:21:27.000Z,23.73
2019-05-13T10:22:26.401Z,23.69
2019-05-13T10:23:26.386Z,23.73
2019-05-13T10:24:26.515Z,23.75
2019-05-13T10:25:26.995Z,23.75
2019-05-13T10:26:26.995Z,23.75
2019-05-13T10:27:26.341Z,23.75
2019-05-13T10:28:26.996Z,23.75
2019-05-13T10:29:26.333Z,23.76
2019-05-13T10:30:27.008Z,23.72
2019-05-13T10:31:26.298Z,23.84
2019-05-13T10:32:26.287Z,23.84
2019-05-13T10:33:26.270Z,23.91
2019-05-13T10:34:26.322Z,23.85
2019-05-13T10:35:26.998Z,23.88
2019-05-13T10:36:26.244Z,23.87
2019-05-13T10:37:26.995Z,23.97
2019-05-13T10:38:27.851Z,23.90
2019-05-13T10:39:26.221Z,23.93
2019-05-13T10:40:27.005Z,23.90
2019-05-13T10:41:26.996Z,23.98
2019-05-13T10:42:26.176Z,23.94
2019-05-13T10:43:31.325Z,24.02
2019-05-13T10:44:26.171Z,24.08
2019-05-13T10:45:27.000Z,24.06
2019-05-13T10:46:27.107Z,24.05
2019-05-13T10:47:26.137Z,24.08
2019-05-13T10:48:26.120Z,23.98
2019-05-13T10:49:27.024Z,24.02
2019-05-13T10:50:27.827Z,23.88
2019-05-13T10:51:26.075Z,23.90
2019-05-13T10:52:26.077Z,23.87
2019-05-13T10:53:26.074Z,23.93
2019-05-13T10:54:26.510Z,23.90
2019-05-13T10:55:26.033Z,23.88
2019-05-13T10:56:27.026Z,23.85
2019-05-13T10:57:27.008Z,23.98
2019-05-13T10:58:26.511Z,23.90
2019-05-13T10:59:25.996Z,23.95
2019-05-13T11:00:25.987Z,23.98
2019-05-13T11:01:26.498Z,24.02
2019-05-13T11:02:25.962Z,24.05
2019-05-13T11:03:25.942Z,23.98
2019-05-13T11:04:25.938Z,24.03
2019-05-13T11:05:25.920Z,24.05
2019-05-13T11:06:26.502Z,24.10
2019-05-13T11:07:25.910Z,23.98
2019-05-13T11:08:25.895Z,24.00
2019-05-13T11:09:26.009Z,24.00
2019-05-13T11:10:26.509Z,24.10
2019-05-13T11:11:25.871Z,24.12
2019-05-13T11:12:28.626Z,24.13
2019-05-13T11:13:25.835Z,24.09
2019-05-13T11:14:26.017Z,24.16
2019-05-13T11:15:26.519Z,24.20
2019-05-13T11:16:25.805Z,24.13
2019-05-13T11:18:25.771Z,24.12
2019-05-13T11:19:25.767Z,24.25
2019-05-13T11:20:25.764Z,24.25
2019-05-13T11:21:26.510Z,24.20
2019-05-13T11:22:25.735Z,24.27
2019-05-13T11:23:25.744Z,24.21
2019-05-13T11:24:25.711Z,24.28
2019-05-13T11:25:25.714Z,24.25
2019-05-13T11:26:25.690Z,24.24
2019-05-13T11:27:26.503Z,24.27
2019-05-13T11:28:25.672Z,24.30
2019-05-13T11:29:25.658Z,24.24
2019-05-13T11:30:25.668Z,24.31
2019-05-13T11:31:25.635Z,24.28
2019-05-13T11:32:26.511Z,24.37
2019-05-13T11:33:25.619Z,24.32
2019-05-13T11:34:25.605Z,24.35
2019-05-13T11:35:25.624Z,24.35
2019-05-13T11:36:25.581Z,24.39
2019-05-13T11:37:25.574Z,24.32
2019-05-13T11:38:25.559Z,24.32
2019-05-13T11:39:25.550Z,24.32
2019-05-13T11:40:25.553Z,24.37
2019-05-13T11:41:25.534Z,24.40
2019-05-13T11:42:25.546Z,24.30
2019-05-13T11:43:28.060Z,24.28
2019-05-13T11:44:25.505Z,24.42
2019-05-13T11:45:25.509Z,24.42
2019-05-13T11:46:26.007Z,24.32
2019-05-13T11:47:25.461Z,24.31
2019-05-13T11:48:26.004Z,24.31
2019-05-13T11:49:25.442Z,24.40
2019-05-13T11:50:25.524Z,24.30
2019-05-13T11:51:25.421Z,24.37
2019-05-13T11:52:25.404Z,24.34
2019-05-13T11:53:32.596Z,24.43
2019-05-13T11:54:25.386Z,24.43
2019-05-13T11:55:25.528Z,24.43
2019-05-13T11:56:25.375Z,24.43
2019-05-13T11:57:25.354Z,24.34
2019-05-13T11:58:25.358Z,24.37
2019-05-13T11:59:25.335Z,24.45
2019-05-13T12:00:25.576Z,24.43
2019-05-13T12:01:25.311Z,24.45
2019-05-13T12:02:26.001Z,24.45
2019-05-13T12:03:25.304Z,24.40
2019-05-13T12:04:26.008Z,24.45
2019-05-13T12:05:25.276Z,24.42
2019-05-13T12:06:25.260Z,24.42
2019-05-13T12:07:25.247Z,24.43
2019-05-13T12:08:25.246Z,24.40
2019-05-13T12:09:25.234Z,24.42
2019-05-13T12:10:25.242Z,24.34
2019-05-13T12:11:25.205Z,24.30
2019-05-13T12:12:30.659Z,24.34
2019-05-13T12:13:25.183Z,24.30
2019-05-13T12:14:42.961Z,24.35
2019-05-13T12:15:38.200Z,24.25
2019-05-13T12:16:25.172Z,24.34
2019-05-13T12:17:25.141Z,24.25
2019-05-13T12:18:25.129Z,24.09
2019-05-13T12:19:25.125Z,24.16
2019-05-13T12:20:25.111Z,24.10
2019-05-13T12:21:25.105Z,24.02
2019-05-13T12:22:25.085Z,24.13
2019-05-13T12:23:25.073Z,24.05
2019-05-13T12:24:25.064Z,24.03
2019-05-13T12:25:25.087Z,24.06
2019-05-13T12:26:25.527Z,23.98
2019-05-13T12:27:25.032Z,24.06
2019-05-13T12:28:26.005Z,24.06
2019-05-13T12:29:25.009Z,24.10
2019-05-13T12:30:25.026Z,24.08
2019-05-13T12:31:25.033Z,23.98
2019-05-13T12:32:24.978Z,24.00
2019-05-13T12:33:24.986Z,24.03
2019-05-13T12:34:25.543Z,24.00
2019-05-13T12:35:25.545Z,24.03
2019-05-13T12:36:25.044Z,24.05
2019-05-13T12:37:25.502Z,24.02
2019-05-13T12:38:24.933Z,24.02
2019-05-13T12:39:25.516Z,24.05
2019-05-13T12:40:24.906Z,23.98
2019-05-13T12:41:24.903Z,23.98
2019-05-13T12:42:25.512Z,24.05
2019-05-13T12:43:24.859Z,24.00
2019-05-13T12:44:24.882Z,23.98
2019-05-13T12:45:25.536Z,23.98
2019-05-13T12:46:25.159Z,23.95
2019-05-13T12:47:24.812Z,23.97
2019-05-13T12:48:24.808Z,24.02
2019-05-13T12:49:32.006Z,23.95
2019-05-13T12:50:24.783Z,23.97
2019-05-13T12:51:24.788Z,24.06
2019-05-13T12:52:24.759Z,24.00
2019-05-13T12:53:24.770Z,23.91